sensor_id;sensor_type;location;lat;lon;timestamp;P1;durP1;ratioP1;P2;durP2;ratioP2
23632;SDS011;11993;48.748;9.166;2023-05-14T00:01:07;9.40;;;7.70;;
23632;SDS011;11993;48.748;9.166;2023-05-14T00:03:32;10.13;;;8.88;;
23632;SDS011;11993;48.748;9.166;2023-05-14T00:05:58;11.50;;;8.07;;
23632;SDS011;11993;48.748;9.166;2023-05-14T00:08:24;8.25;;;6.93;;
23632;SDS011;11993;48.748;9.166;2023-05-14T00:10:49;13.90;;;9.77;;
23632;SDS011;11993;48.748;9.166;2023-05-14T00:13:16;10.07;;;7.68;;
23632;SDS011;11993;48.748;9.166;2023-05-14T00:15:44;9.00;;;7.85;;
23632;SDS011;11993;48.748;9.166;2023-05-14T00:18:09;9.90;;;8.20;;
23632;SDS011;11993;48.748;9.166;2023-05-14T00:20:36;10.05;;;7.85;;
23632;SDS011;11993;48.748;9.166;2023-05-14T00:23:01;8.93;;;7.97;;
23632;SDS011;11993;48.748;9.166;2023-05-14T00:25:27;8.60;;;7.45;;
23632;SDS011;11993;48.748;9.166;2023-05-14T00:27:54;9.48;;;8.25;;
23632;SDS011;11993;48.748;9.166;2023-05-14T00:30:19;8.95;;;7.93;;
23632;SDS011;11993;48.748;9.166;2023-05-14T00:32:45;8.73;;;7.88;;
23632;SDS011;11993;48.748;9.166;2023-05-14T00:35:10;11.07;;;7.93;;
23632;SDS011;11993;48.748;9.166;2023-05-14T00:37:37;9.63;;;7.88;;
23632;SDS011;11993;48.748;9.166;2023-05-14T00:40:03;7.80;;;7.00;;
23632;SDS011;11993;48.748;9.166;2023-05-14T00:42:30;10.65;;;7.85;;
23632;SDS011;11993;48.748;9.166;2023-05-14T00:44:56;9.45;;;8.55;;
23632;SDS011;11993;48.748;9.166;2023-05-14T00:47:21;9.25;;;8.02;;
23632;SDS011;11993;48.748;9.166;2023-05-14T00:49:47;7.95;;;6.95;;
23632;SDS011;11993;48.748;9.166;2023-05-14T00:52:13;8.43;;;7.30;;
23632;SDS011;11993;48.748;9.166;2023-05-14T00:54:40;7.95;;;7.07;;
23632;SDS011;11993;48.748;9.166;2023-05-14T00:57:06;8.60;;;7.18;;
23632;SDS011;11993;48.748;9.166;2023-05-14T00:59:32;7.82;;;6.28;;
23632;SDS011;11993;48.748;9.166;2023-05-14T01:01:58;7.80;;;7.00;;
23632;SDS011;11993;48.748;9.166;2023-05-14T01:04:24;8.05;;;7.25;;
23632;SDS011;11993;48.748;9.166;2023-05-14T01:12:18;7.78;;;6.75;;
23632;SDS011;11993;48.748;9.166;2023-05-14T01:17:27;8.25;;;7.28;;
23632;SDS011;11993;48.748;9.166;2023-05-14T01:19:55;8.75;;;7.47;;
23632;SDS011;11993;48.748;9.166;2023-05-14T01:22:22;9.57;;;7.28;;
23632;SDS011;11993;48.748;9.166;2023-05-14T01:24:47;10.02;;;8.18;;
23632;SDS011;11993;48.748;9.166;2023-05-14T01:27:21;10.82;;;7.90;;
23632;SDS011;11993;48.748;9.166;2023-05-14T01:29:55;8.90;;;7.72;;
23632;SDS011;11993;48.748;9.166;2023-05-14T01:32:27;9.32;;;7.00;;
23632;SDS011;11993;48.748;9.166;2023-05-14T01:34:54;9.35;;;8.02;;
23632;SDS011;11993;48.748;9.166;2023-05-14T01:37:22;8.55;;;7.65;;
23632;SDS011;11993;48.748;9.166;2023-05-14T01:39:49;8.10;;;7.10;;
23632;SDS011;11993;48.748;9.166;2023-05-14T01:42:16;9.73;;;7.82;;
23632;SDS011;11993;48.748;9.166;2023-05-14T01:44:42;8.50;;;7.63;;
23632;SDS011;11993;48.748;9.166;2023-05-14T01:47:08;8.23;;;7.30;;
23632;SDS011;11993;48.748;9.166;2023-05-14T01:49:33;9.13;;;7.85;;
23632;SDS011;11993;48.748;9.166;2023-05-14T01:52:01;11.07;;;7.97;;
23632;SDS011;11993;48.748;9.166;2023-05-14T01:54:26;10.15;;;8.38;;
23632;SDS011;11993;48.748;9.166;2023-05-14T01:56:52;9.95;;;7.93;;
23632;SDS011;11993;48.748;9.166;2023-05-14T01:59:17;8.68;;;7.72;;
23632;SDS011;11993;48.748;9.166;2023-05-14T02:01:43;9.35;;;8.30;;
23632;SDS011;11993;48.748;9.166;2023-05-14T02:04:08;11.98;;;10.20;;
23632;SDS011;11993;48.748;9.166;2023-05-14T02:06:34;8.50;;;7.00;;
23632;SDS011;11993;48.748;9.166;2023-05-14T02:08:59;10.35;;;9.25;;
23632;SDS011;11993;48.748;9.166;2023-05-14T02:11:25;10.20;;;8.15;;
23632;SDS011;11993;48.748;9.166;2023-05-14T02:13:50;10.00;;;8.73;;
23632;SDS011;11993;48.748;9.166;2023-05-14T02:16:16;9.43;;;8.25;;
23632;SDS011;11993;48.748;9.166;2023-05-14T02:18:43;13.43;;;9.98;;
23632;SDS011;11993;48.748;9.166;2023-05-14T02:21:08;14.45;;;10.45;;
23632;SDS011;11993;48.748;9.166;2023-05-14T02:23:34;13.27;;;11.40;;
23632;SDS011;11993;48.748;9.166;2023-05-14T02:26:00;12.80;;;10.93;;
23632;SDS011;11993;48.748;9.166;2023-05-14T02:28:25;11.13;;;9.25;;
23632;SDS011;11993;48.748;9.166;2023-05-14T02:30:51;12.02;;;10.63;;
23632;SDS011;11993;48.748;9.166;2023-05-14T02:33:16;13.98;;;12.48;;
23632;SDS011;11993;48.748;9.166;2023-05-14T02:35:42;11.65;;;10.40;;
23632;SDS011;11993;48.748;9.166;2023-05-14T02:38:07;11.88;;;10.13;;
23632;SDS011;11993;48.748;9.166;2023-05-14T02:40:33;14.27;;;12.63;;
23632;SDS011;11993;48.748;9.166;2023-05-14T02:43:00;11.85;;;10.23;;
23632;SDS011;11993;48.748;9.166;2023-05-14T02:45:26;12.85;;;9.38;;
23632;SDS011;11993;48.748;9.166;2023-05-14T02:47:52;12.50;;;9.70;;
23632;SDS011;11993;48.748;9.166;2023-05-14T02:50:17;15.23;;;13.50;;
23632;SDS011;11993;48.748;9.166;2023-05-14T02:52:43;12.00;;;10.75;;
23632;SDS011;11993;48.748;9.166;2023-05-14T02:55:08;12.10;;;9.77;;
23632;SDS011;11993;48.748;9.166;2023-05-14T02:57:34;11.38;;;10.07;;
23632;SDS011;11993;48.748;9.166;2023-05-14T02:59:59;11.85;;;9.40;;
23632;SDS011;11993;48.748;9.166;2023-05-14T03:02:25;13.98;;;9.73;;
23632;SDS011;11993;48.748;9.166;2023-05-14T03:04:51;11.38;;;10.07;;
23632;SDS011;11993;48.748;9.166;2023-05-14T03:07:16;9.88;;;8.73;;
23632;SDS011;11993;48.748;9.166;2023-05-14T03:09:42;14.23;;;9.30;;
23632;SDS011;11993;48.748;9.166;2023-05-14T03:12:07;11.10;;;9.23;;
23632;SDS011;11993;48.748;9.166;2023-05-14T03:14:33;10.10;;;9.10;;
23632;SDS011;11993;48.748;9.166;2023-05-14T03:16:58;14.23;;;11.05;;
23632;SDS011;11993;48.748;9.166;2023-05-14T03:19:24;9.63;;;8.63;;
23632;SDS011;11993;48.748;9.166;2023-05-14T03:21:49;9.60;;;8.68;;
23632;SDS011;11993;48.748;9.166;2023-05-14T03:24:15;10.55;;;9.18;;
23632;SDS011;11993;48.748;9.166;2023-05-14T03:26:41;9.30;;;8.35;;
23632;SDS011;11993;48.748;9.166;2023-05-14T03:29:06;10.35;;;8.30;;
23632;SDS011;11993;48.748;9.166;2023-05-14T03:31:32;11.57;;;8.40;;
23632;SDS011;11993;48.748;9.166;2023-05-14T03:33:58;13.48;;;10.68;;
23632;SDS011;11993;48.748;9.166;2023-05-14T03:36:23;9.80;;;8.80;;
23632;SDS011;11993;48.748;9.166;2023-05-14T03:38:49;14.25;;;9.95;;
23632;SDS011;11993;48.748;9.166;2023-05-14T03:41:14;9.40;;;8.40;;
23632;SDS011;11993;48.748;9.166;2023-05-14T03:43:41;11.07;;;9.23;;
23632;SDS011;11993;48.748;9.166;2023-05-14T03:46:07;13.68;;;8.93;;
23632;SDS011;11993;48.748;9.166;2023-05-14T03:48:32;10.43;;;8.73;;
23632;SDS011;11993;48.748;9.166;2023-05-14T03:50:58;11.80;;;9.10;;
23632;SDS011;11993;48.748;9.166;2023-05-14T03:53:23;12.60;;;8.93;;
23632;SDS011;11993;48.748;9.166;2023-05-14T03:55:49;9.10;;;8.20;;
23632;SDS011;11993;48.748;9.166;2023-05-14T03:58:15;10.60;;;9.25;;
23632;SDS011;11993;48.748;9.166;2023-05-14T04:00:41;9.27;;;8.32;;
23632;SDS011;11993;48.748;9.166;2023-05-14T04:03:07;13.80;;;9.55;;
23632;SDS011;11993;48.748;9.166;2023-05-14T04:05:33;9.23;;;8.02;;
23632;SDS011;11993;48.748;9.166;2023-05-14T04:07:59;10.45;;;8.88;;
23632;SDS011;11993;48.748;9.166;2023-05-14T04:10:25;11.30;;;9.38;;
23632;SDS011;11993;48.748;9.166;2023-05-14T04:12:51;9.90;;;8.65;;
23632;SDS011;11993;48.748;9.166;2023-05-14T04:15:17;9.73;;;8.45;;
23632;SDS011;11993;48.748;9.166;2023-05-14T04:17:42;12.40;;;9.25;;
23632;SDS011;11993;48.748;9.166;2023-05-14T04:20:08;10.25;;;8.50;;
23632;SDS011;11993;48.748;9.166;2023-05-14T04:22:35;10.00;;;8.45;;
23632;SDS011;11993;48.748;9.166;2023-05-14T04:25:00;14.70;;;9.07;;
23632;SDS011;11993;48.748;9.166;2023-05-14T04:27:27;10.10;;;8.43;;
23632;SDS011;11993;48.748;9.166;2023-05-14T04:29:52;16.33;;;9.70;;
23632;SDS011;11993;48.748;9.166;2023-05-14T04:32:18;9.57;;;8.60;;
23632;SDS011;11993;48.748;9.166;2023-05-14T04:34:44;12.25;;;9.23;;
23632;SDS011;11993;48.748;9.166;2023-05-14T04:37:11;11.23;;;8.52;;
23632;SDS011;11993;48.748;9.166;2023-05-14T04:39:36;10.45;;;9.30;;
23632;SDS011;11993;48.748;9.166;2023-05-14T04:42:02;11.27;;;9.93;;
23632;SDS011;11993;48.748;9.166;2023-05-14T04:44:28;14.02;;;9.18;;
23632;SDS011;11993;48.748;9.166;2023-05-14T04:46:54;10.00;;;9.02;;
23632;SDS011;11993;48.748;9.166;2023-05-14T04:49:19;17.15;;;11.65;;
23632;SDS011;11993;48.748;9.166;2023-05-14T04:51:45;11.73;;;10.02;;
23632;SDS011;11993;48.748;9.166;2023-05-14T04:54:12;13.30;;;10.05;;
23632;SDS011;11993;48.748;9.166;2023-05-14T04:56:37;12.80;;;9.40;;
23632;SDS011;11993;48.748;9.166;2023-05-14T04:59:04;14.68;;;10.45;;
23632;SDS011;11993;48.748;9.166;2023-05-14T05:01:32;11.63;;;10.32;;
23632;SDS011;11993;48.748;9.166;2023-05-14T05:03:58;10.70;;;9.60;;
23632;SDS011;11993;48.748;9.166;2023-05-14T05:06:24;11.45;;;9.25;;
23632;SDS011;11993;48.748;9.166;2023-05-14T05:08:49;21.10;;;18.02;;
23632;SDS011;11993;48.748;9.166;2023-05-14T05:11:15;14.68;;;12.25;;
23632;SDS011;11993;48.748;9.166;2023-05-14T05:13:40;10.02;;;8.98;;
23632;SDS011;11993;48.748;9.166;2023-05-14T05:16:06;11.68;;;10.45;;
23632;SDS011;11993;48.748;9.166;2023-05-14T05:18:32;13.30;;;10.10;;
23632;SDS011;11993;48.748;9.166;2023-05-14T05:20:57;14.32;;;10.57;;
23632;SDS011;11993;48.748;9.166;2023-05-14T05:23:23;11.93;;;9.50;;
23632;SDS011;11993;48.748;9.166;2023-05-14T05:25:48;14.43;;;9.93;;
23632;SDS011;11993;48.748;9.166;2023-05-14T05:28:14;11.73;;;10.07;;
23632;SDS011;11993;48.748;9.166;2023-05-14T05:30:40;13.18;;;11.38;;
23632;SDS011;11993;48.748;9.166;2023-05-14T05:33:06;13.27;;;10.80;;
23632;SDS011;11993;48.748;9.166;2023-05-14T05:35:31;10.00;;;8.75;;
23632;SDS011;11993;48.748;9.166;2023-05-14T05:37:57;12.25;;;10.52;;
23632;SDS011;11993;48.748;9.166;2023-05-14T05:40:22;12.82;;;10.13;;
23632;SDS011;11993;48.748;9.166;2023-05-14T05:42:48;14.57;;;10.00;;
23632;SDS011;11993;48.748;9.166;2023-05-14T05:45:14;11.88;;;9.18;;
23632;SDS011;11993;48.748;9.166;2023-05-14T05:47:39;13.57;;;10.55;;
23632;SDS011;11993;48.748;9.166;2023-05-14T05:50:05;13.50;;;9.60;;
23632;SDS011;11993;48.748;9.166;2023-05-14T05:52:31;10.63;;;8.35;;
23632;SDS011;11993;48.748;9.166;2023-05-14T05:54:57;9.57;;;8.57;;
23632;SDS011;11993;48.748;9.166;2023-05-14T05:57:23;9.65;;;8.65;;
23632;SDS011;11993;48.748;9.166;2023-05-14T05:59:51;10.40;;;9.02;;
23632;SDS011;11993;48.748;9.166;2023-05-14T06:02:16;10.23;;;9.13;;
23632;SDS011;11993;48.748;9.166;2023-05-14T06:04:42;11.85;;;9.35;;
23632;SDS011;11993;48.748;9.166;2023-05-14T06:07:08;12.23;;;8.70;;
23632;SDS011;11993;48.748;9.166;2023-05-14T06:09:33;11.38;;;9.77;;
23632;SDS011;11993;48.748;9.166;2023-05-14T06:11:59;11.60;;;8.93;;
23632;SDS011;11993;48.748;9.166;2023-05-14T06:14:25;10.55;;;9.00;;
23632;SDS011;11993;48.748;9.166;2023-05-14T06:16:51;14.77;;;11.43;;
23632;SDS011;11993;48.748;9.166;2023-05-14T06:19:17;18.70;;;11.52;;
23632;SDS011;11993;48.748;9.166;2023-05-14T06:21:43;51.45;;;33.03;;
23632;SDS011;11993;48.748;9.166;2023-05-14T06:24:08;14.52;;;11.68;;
23632;SDS011;11993;48.748;9.166;2023-05-14T06:26:34;12.05;;;8.80;;
23632;SDS011;11993;48.748;9.166;2023-05-14T06:29:00;10.50;;;9.05;;
23632;SDS011;11993;48.748;9.166;2023-05-14T06:31:25;10.98;;;9.60;;
23632;SDS011;11993;48.748;9.166;2023-05-14T06:33:51;15.32;;;10.60;;
23632;SDS011;11993;48.748;9.166;2023-05-14T06:36:16;15.27;;;9.70;;
23632;SDS011;11993;48.748;9.166;2023-05-14T06:38:42;26.10;;;18.05;;
23632;SDS011;11993;48.748;9.166;2023-05-14T06:41:07;24.95;;;17.60;;
23632;SDS011;11993;48.748;9.166;2023-05-14T06:43:33;11.82;;;9.98;;
23632;SDS011;11993;48.748;9.166;2023-05-14T06:45:59;11.45;;;9.95;;
23632;SDS011;11993;48.748;9.166;2023-05-14T06:48:25;12.43;;;9.65;;
23632;SDS011;11993;48.748;9.166;2023-05-14T06:50:53;11.07;;;9.23;;
23632;SDS011;11993;48.748;9.166;2023-05-14T06:53:19;13.32;;;10.27;;
23632;SDS011;11993;48.748;9.166;2023-05-14T06:55:46;11.55;;;9.52;;
23632;SDS011;11993;48.748;9.166;2023-05-14T06:58:12;10.95;;;9.60;;
23632;SDS011;11993;48.748;9.166;2023-05-14T07:00:38;11.90;;;9.38;;
23632;SDS011;11993;48.748;9.166;2023-05-14T07:03:04;10.88;;;9.70;;
23632;SDS011;11993;48.748;9.166;2023-05-14T07:05:30;11.43;;;8.93;;
23632;SDS011;11993;48.748;9.166;2023-05-14T07:07:56;10.02;;;8.23;;
23632;SDS011;11993;48.748;9.166;2023-05-14T07:10:21;13.30;;;9.55;;
23632;SDS011;11993;48.748;9.166;2023-05-14T07:12:47;11.75;;;9.38;;
23632;SDS011;11993;48.748;9.166;2023-05-14T07:15:13;9.77;;;8.77;;
23632;SDS011;11993;48.748;9.166;2023-05-14T07:17:39;27.90;;;19.98;;
23632;SDS011;11993;48.748;9.166;2023-05-14T07:20:05;12.98;;;10.43;;
23632;SDS011;11993;48.748;9.166;2023-05-14T07:22:31;14.48;;;10.27;;
23632;SDS011;11993;48.748;9.166;2023-05-14T07:24:57;10.82;;;8.95;;
23632;SDS011;11993;48.748;9.166;2023-05-14T07:27:22;10.52;;;8.68;;
23632;SDS011;11993;48.748;9.166;2023-05-14T07:29:48;13.98;;;9.25;;
23632;SDS011;11993;48.748;9.166;2023-05-14T07:32:14;9.70;;;8.43;;
23632;SDS011;11993;48.748;9.166;2023-05-14T07:34:40;18.13;;;12.63;;
23632;SDS011;11993;48.748;9.166;2023-05-14T07:37:06;10.15;;;8.85;;
23632;SDS011;11993;48.748;9.166;2023-05-14T07:39:31;10.23;;;8.75;;
23632;SDS011;11993;48.748;9.166;2023-05-14T07:41:57;11.40;;;9.15;;
23632;SDS011;11993;48.748;9.166;2023-05-14T07:44:24;11.07;;;8.52;;
23632;SDS011;11993;48.748;9.166;2023-05-14T07:46:49;11.00;;;8.25;;
23632;SDS011;11993;48.748;9.166;2023-05-14T07:49:15;8.88;;;8.00;;
23632;SDS011;11993;48.748;9.166;2023-05-14T07:51:40;10.35;;;8.38;;
23632;SDS011;11993;48.748;9.166;2023-05-14T07:54:06;14.90;;;12.18;;
23632;SDS011;11993;48.748;9.166;2023-05-14T07:56:31;11.15;;;9.02;;
23632;SDS011;11993;48.748;9.166;2023-05-14T07:58:57;11.80;;;8.32;;
23632;SDS011;11993;48.748;9.166;2023-05-14T08:01:22;13.30;;;7.82;;
23632;SDS011;11993;48.748;9.166;2023-05-14T08:03:48;12.35;;;8.02;;
23632;SDS011;11993;48.748;9.166;2023-05-14T08:06:13;8.82;;;7.72;;
23632;SDS011;11993;48.748;9.166;2023-05-14T08:08:39;11.02;;;8.15;;
23632;SDS011;11993;48.748;9.166;2023-05-14T08:11:05;32.75;;;23.38;;
23632;SDS011;11993;48.748;9.166;2023-05-14T08:13:30;13.18;;;10.07;;
23632;SDS011;11993;48.748;9.166;2023-05-14T08:15:56;8.85;;;7.95;;
23632;SDS011;11993;48.748;9.166;2023-05-14T08:18:21;10.13;;;7.70;;
23632;SDS011;11993;48.748;9.166;2023-05-14T08:20:47;11.48;;;8.90;;
23632;SDS011;11993;48.748;9.166;2023-05-14T08:23:13;9.43;;;8.05;;
23632;SDS011;11993;48.748;9.166;2023-05-14T08:25:38;10.75;;;8.77;;
23632;SDS011;11993;48.748;9.166;2023-05-14T08:28:04;12.63;;;8.23;;
23632;SDS011;11993;48.748;9.166;2023-05-14T08:30:31;8.88;;;7.40;;
23632;SDS011;11993;48.748;9.166;2023-05-14T08:32:56;9.43;;;8.25;;
23632;SDS011;11993;48.748;9.166;2023-05-14T08:35:22;10.02;;;8.77;;
23632;SDS011;11993;48.748;9.166;2023-05-14T08:37:48;8.70;;;7.72;;
23632;SDS011;11993;48.748;9.166;2023-05-14T08:40:14;9.25;;;7.30;;
23632;SDS011;11993;48.748;9.166;2023-05-14T08:42:39;10.43;;;7.68;;
23632;SDS011;11993;48.748;9.166;2023-05-14T08:45:06;9.43;;;8.15;;
23632;SDS011;11993;48.748;9.166;2023-05-14T08:47:37;12.43;;;8.07;;
23632;SDS011;11993;48.748;9.166;2023-05-14T08:50:04;8.95;;;7.72;;
23632;SDS011;11993;48.748;9.166;2023-05-14T08:52:31;8.35;;;7.38;;
23632;SDS011;11993;48.748;9.166;2023-05-14T08:54:57;11.43;;;8.25;;
23632;SDS011;11993;48.748;9.166;2023-05-14T08:57:25;10.95;;;8.68;;
23632;SDS011;11993;48.748;9.166;2023-05-14T08:59:52;10.18;;;7.75;;
23632;SDS011;11993;48.748;9.166;2023-05-14T09:02:20;10.93;;;8.38;;
23632;SDS011;11993;48.748;9.166;2023-05-14T09:04:54;12.23;;;8.10;;
23632;SDS011;11993;48.748;9.166;2023-05-14T09:07:24;10.27;;;8.30;;
23632;SDS011;11993;48.748;9.166;2023-05-14T09:09:50;9.75;;;8.68;;
23632;SDS011;11993;48.748;9.166;2023-05-14T09:12:16;8.02;;;7.22;;
23632;SDS011;11993;48.748;9.166;2023-05-14T09:14:43;12.32;;;8.82;;
23632;SDS011;11993;48.748;9.166;2023-05-14T09:17:10;11.75;;;7.55;;
23632;SDS011;11993;48.748;9.166;2023-05-14T09:19:39;12.05;;;8.10;;
23632;SDS011;11993;48.748;9.166;2023-05-14T09:22:10;10.73;;;8.68;;
23632;SDS011;11993;48.748;9.166;2023-05-14T09:24:37;13.07;;;9.38;;
23632;SDS011;11993;48.748;9.166;2023-05-14T09:27:03;12.15;;;9.38;;
23632;SDS011;11993;48.748;9.166;2023-05-14T09:29:29;10.77;;;9.15;;
23632;SDS011;11993;48.748;9.166;2023-05-14T09:31:57;12.07;;;9.65;;
23632;SDS011;11993;48.748;9.166;2023-05-14T09:34:24;13.98;;;8.77;;
23632;SDS011;11993;48.748;9.166;2023-05-14T09:36:58;11.52;;;9.50;;
23632;SDS011;11993;48.748;9.166;2023-05-14T09:39:25;14.35;;;9.10;;
23632;SDS011;11993;48.748;9.166;2023-05-14T09:41:52;11.57;;;9.50;;
23632;SDS011;11993;48.748;9.166;2023-05-14T09:44:18;10.23;;;8.80;;
23632;SDS011;11993;48.748;9.166;2023-05-14T09:46:44;12.90;;;8.48;;
23632;SDS011;11993;48.748;9.166;2023-05-14T09:49:10;9.27;;;8.13;;
23632;SDS011;11993;48.748;9.166;2023-05-14T09:51:36;9.95;;;8.48;;
23632;SDS011;11993;48.748;9.166;2023-05-14T09:54:05;10.30;;;8.07;;
23632;SDS011;11993;48.748;9.166;2023-05-14T09:56:31;10.25;;;9.05;;
23632;SDS011;11993;48.748;9.166;2023-05-14T09:58:58;11.93;;;8.68;;
23632;SDS011;11993;48.748;9.166;2023-05-14T10:01:23;11.93;;;8.95;;
23632;SDS011;11993;48.748;9.166;2023-05-14T10:03:50;7.28;;;6.15;;
23632;SDS011;11993;48.748;9.166;2023-05-14T10:06:18;11.02;;;7.57;;
23632;SDS011;11993;48.748;9.166;2023-05-14T10:08:46;8.52;;;6.45;;
23632;SDS011;11993;48.748;9.166;2023-05-14T10:11:17;10.15;;;7.03;;
23632;SDS011;11993;48.748;9.166;2023-05-14T10:13:52;12.65;;;7.57;;
23632;SDS011;11993;48.748;9.166;2023-05-14T10:16:26;11.40;;;7.65;;
23632;SDS011;11993;48.748;9.166;2023-05-14T10:18:57;11.50;;;7.60;;
23632;SDS011;11993;48.748;9.166;2023-05-14T10:21:28;11.90;;;9.95;;
23632;SDS011;11993;48.748;9.166;2023-05-14T10:23:55;10.85;;;8.55;;
23632;SDS011;11993;48.748;9.166;2023-05-14T10:26:21;9.68;;;8.32;;
23632;SDS011;11993;48.748;9.166;2023-05-14T10:28:47;11.43;;;8.52;;
23632;SDS011;11993;48.748;9.166;2023-05-14T10:31:13;7.95;;;7.13;;
23632;SDS011;11993;48.748;9.166;2023-05-14T10:33:48;7.72;;;5.93;;
23632;SDS011;11993;48.748;9.166;2023-05-14T10:36:15;6.50;;;5.63;;
23632;SDS011;11993;48.748;9.166;2023-05-14T10:38:42;7.55;;;6.35;;
23632;SDS011;11993;48.748;9.166;2023-05-14T10:41:11;12.40;;;6.53;;
23632;SDS011;11993;48.748;9.166;2023-05-14T10:43:40;7.00;;;5.82;;
23632;SDS011;11993;48.748;9.166;2023-05-14T10:46:07;7.63;;;5.47;;
23632;SDS011;11993;48.748;9.166;2023-05-14T10:48:33;5.70;;;4.60;;
23632;SDS011;11993;48.748;9.166;2023-05-14T10:51:01;6.55;;;5.80;;
23632;SDS011;11993;48.748;9.166;2023-05-14T10:54:00;7.95;;;5.80;;
23632;SDS011;11993;48.748;9.166;2023-05-14T10:56:18;8.48;;;5.88;;
23632;SDS011;11993;48.748;9.166;2023-05-14T10:58:45;10.13;;;6.78;;
23632;SDS011;11993;48.748;9.166;2023-05-14T11:01:14;7.88;;;6.70;;
23632;SDS011;11993;48.748;9.166;2023-05-14T11:03:43;8.75;;;6.90;;
23632;SDS011;11993;48.748;9.166;2023-05-14T11:06:10;7.75;;;6.25;;
23632;SDS011;11993;48.748;9.166;2023-05-14T11:08:40;6.60;;;4.82;;
23632;SDS011;11993;48.748;9.166;2023-05-14T11:11:06;7.53;;;5.57;;
23632;SDS011;11993;48.748;9.166;2023-05-14T11:13:32;6.45;;;5.10;;
23632;SDS011;11993;48.748;9.166;2023-05-14T11:15:59;6.15;;;4.80;;
23632;SDS011;11993;48.748;9.166;2023-05-14T11:18:29;5.43;;;4.75;;
23632;SDS011;11993;48.748;9.166;2023-05-14T11:21:00;7.78;;;5.38;;
23632;SDS011;11993;48.748;9.166;2023-05-14T11:23:26;6.47;;;5.57;;
23632;SDS011;11993;48.748;9.166;2023-05-14T11:25:53;7.20;;;5.90;;
23632;SDS011;11993;48.748;9.166;2023-05-14T11:28:20;7.13;;;5.80;;
23632;SDS011;11993;48.748;9.166;2023-05-14T11:30:50;7.13;;;6.13;;
23632;SDS011;11993;48.748;9.166;2023-05-14T11:33:17;8.43;;;5.60;;
23632;SDS011;11993;48.748;9.166;2023-05-14T11:35:43;11.70;;;8.95;;
23632;SDS011;11993;48.748;9.166;2023-05-14T11:38:18;8.05;;;6.30;;
23632;SDS011;11993;48.748;9.166;2023-05-14T11:40:51;6.63;;;5.20;;
23632;SDS011;11993;48.748;9.166;2023-05-14T11:43:18;6.82;;;5.70;;
23632;SDS011;11993;48.748;9.166;2023-05-14T11:45:48;8.15;;;5.57;;
23632;SDS011;11993;48.748;9.166;2023-05-14T11:48:14;7.03;;;5.53;;
23632;SDS011;11993;48.748;9.166;2023-05-14T11:50:43;6.72;;;5.22;;
23632;SDS011;11993;48.748;9.166;2023-05-14T11:53:16;7.90;;;5.00;;
23632;SDS011;11993;48.748;9.166;2023-05-14T11:55:49;6.68;;;5.93;;
23632;SDS011;11993;48.748;9.166;2023-05-14T11:58:16;6.47;;;5.32;;
23632;SDS011;11993;48.748;9.166;2023-05-14T12:00:43;7.95;;;5.65;;
23632;SDS011;11993;48.748;9.166;2023-05-14T12:03:09;7.47;;;5.80;;
23632;SDS011;11993;48.748;9.166;2023-05-14T12:05:36;13.70;;;9.65;;
23632;SDS011;11993;48.748;9.166;2023-05-14T12:08:26;6.68;;;5.22;;
23632;SDS011;11993;48.748;9.166;2023-05-14T12:10:52;7.13;;;5.20;;
23632;SDS011;11993;48.748;9.166;2023-05-14T12:13:18;6.90;;;5.15;;
23632;SDS011;11993;48.748;9.166;2023-05-14T12:15:53;7.65;;;5.45;;
23632;SDS011;11993;48.748;9.166;2023-05-14T12:18:20;11.07;;;5.82;;
23632;SDS011;11993;48.748;9.166;2023-05-14T12:20:48;8.02;;;5.28;;
23632;SDS011;11993;48.748;9.166;2023-05-14T12:23:15;6.03;;;4.95;;
23632;SDS011;11993;48.748;9.166;2023-05-14T12:25:48;8.77;;;4.80;;
23632;SDS011;11993;48.748;9.166;2023-05-14T12:28:15;7.20;;;5.18;;
23632;SDS011;11993;48.748;9.166;2023-05-14T12:30:41;8.40;;;4.25;;
23632;SDS011;11993;48.748;9.166;2023-05-14T12:33:07;8.23;;;4.68;;
23632;SDS011;11993;48.748;9.166;2023-05-14T12:35:33;5.82;;;4.03;;
23632;SDS011;11993;48.748;9.166;2023-05-14T12:38:00;3.85;;;3.50;;
23632;SDS011;11993;48.748;9.166;2023-05-14T12:40:27;12.20;;;4.00;;
23632;SDS011;11993;48.748;9.166;2023-05-14T12:42:52;10.75;;;4.18;;
23632;SDS011;11993;48.748;9.166;2023-05-14T12:45:18;5.88;;;3.58;;
23632;SDS011;11993;48.748;9.166;2023-05-14T12:47:43;7.93;;;3.97;;
23632;SDS011;11993;48.748;9.166;2023-05-14T12:50:09;4.53;;;4.03;;
23632;SDS011;11993;48.748;9.166;2023-05-14T12:52:35;7.38;;;4.25;;
23632;SDS011;11993;48.748;9.166;2023-05-14T12:55:01;3.78;;;3.35;;
23632;SDS011;11993;48.748;9.166;2023-05-14T12:57:26;4.65;;;3.40;;
23632;SDS011;11993;48.748;9.166;2023-05-14T12:59:53;4.28;;;3.00;;
23632;SDS011;11993;48.748;9.166;2023-05-14T13:02:19;4.28;;;3.40;;
23632;SDS011;11993;48.748;9.166;2023-05-14T13:04:45;6.22;;;3.67;;
23632;SDS011;11993;48.748;9.166;2023-05-14T13:07:11;4.95;;;3.53;;
23632;SDS011;11993;48.748;9.166;2023-05-14T13:09:37;4.68;;;4.13;;
23632;SDS011;11993;48.748;9.166;2023-05-14T13:12:02;6.28;;;4.97;;
23632;SDS011;11993;48.748;9.166;2023-05-14T13:14:28;4.53;;;4.13;;
23632;SDS011;11993;48.748;9.166;2023-05-14T13:16:54;4.68;;;3.40;;
23632;SDS011;11993;48.748;9.166;2023-05-14T13:19:19;5.38;;;4.35;;
23632;SDS011;11993;48.748;9.166;2023-05-14T13:21:45;5.65;;;3.47;;
23632;SDS011;11993;48.748;9.166;2023-05-14T13:24:10;8.48;;;3.88;;
23632;SDS011;11993;48.748;9.166;2023-05-14T13:26:36;4.18;;;3.13;;
23632;SDS011;11993;48.748;9.166;2023-05-14T13:29:02;8.35;;;3.30;;
23632;SDS011;11993;48.748;9.166;2023-05-14T13:31:27;5.63;;;2.85;;
23632;SDS011;11993;48.748;9.166;2023-05-14T13:33:53;6.00;;;3.05;;
23632;SDS011;11993;48.748;9.166;2023-05-14T13:36:19;5.93;;;2.63;;
23632;SDS011;11993;48.748;9.166;2023-05-14T13:38:44;5.90;;;2.67;;
23632;SDS011;11993;48.748;9.166;2023-05-14T13:41:10;5.80;;;4.53;;
23632;SDS011;11993;48.748;9.166;2023-05-14T13:43:36;10.35;;;6.93;;
23632;SDS011;11993;48.748;9.166;2023-05-14T13:46:02;5.80;;;4.70;;
23632;SDS011;11993;48.748;9.166;2023-05-14T13:48:29;6.93;;;4.50;;
23632;SDS011;11993;48.748;9.166;2023-05-14T13:50:57;7.43;;;6.10;;
23632;SDS011;11993;48.748;9.166;2023-05-14T13:53:23;4.97;;;4.22;;
23632;SDS011;11993;48.748;9.166;2023-05-14T13:55:50;4.10;;;3.70;;
23632;SDS011;11993;48.748;9.166;2023-05-14T13:58:22;9.07;;;4.10;;
23632;SDS011;11993;48.748;9.166;2023-05-14T14:00:51;6.53;;;3.85;;
23632;SDS011;11993;48.748;9.166;2023-05-14T14:03:17;4.45;;;3.92;;
23632;SDS011;11993;48.748;9.166;2023-05-14T14:05:43;5.53;;;3.60;;
23632;SDS011;11993;48.748;9.166;2023-05-14T14:08:08;9.05;;;3.40;;
23632;SDS011;11993;48.748;9.166;2023-05-14T14:10:34;4.03;;;3.45;;
23632;SDS011;11993;48.748;9.166;2023-05-14T14:13:00;4.68;;;4.10;;
23632;SDS011;11993;48.748;9.166;2023-05-14T14:15:26;3.92;;;3.53;;
23632;SDS011;11993;48.748;9.166;2023-05-14T14:17:51;3.55;;;3.25;;
23632;SDS011;11993;48.748;9.166;2023-05-14T14:20:17;3.75;;;3.33;;
23632;SDS011;11993;48.748;9.166;2023-05-14T14:22:43;4.85;;;4.32;;
23632;SDS011;11993;48.748;9.166;2023-05-14T14:25:09;7.53;;;4.30;;
23632;SDS011;11993;48.748;9.166;2023-05-14T14:27:36;5.05;;;3.67;;
23632;SDS011;11993;48.748;9.166;2023-05-14T14:30:11;5.18;;;3.60;;
23632;SDS011;11993;48.748;9.166;2023-05-14T14:32:44;3.90;;;3.50;;
23632;SDS011;11993;48.748;9.166;2023-05-14T14:35:11;4.30;;;3.40;;
23632;SDS011;11993;48.748;9.166;2023-05-14T14:37:38;6.38;;;3.53;;
23632;SDS011;11993;48.748;9.166;2023-05-14T14:40:05;3.85;;;3.20;;
23632;SDS011;11993;48.748;9.166;2023-05-14T14:42:35;5.70;;;2.78;;